Time;durP1;ratioP1;P1;durP2;ratioP2;P2;SDS_P1;SDS_P2;PMS_P1;PMS_P2;Temp;Humidity;BMP_temperature;BMP_pressure;BME280_temperature;BME280_humidity;BME280_pressure;Samples;Min_cycle;Max_cycle;Signal;HPM_P1;HPM_P2
2021/06/08 00:00:36;;;;;;;6.53;4.97;;;16.20;93.50;;;;;;5096358;28;20020;-83
2021/06/08 00:03:03;;;;;;;6.40;5.55;;;16.20;93.60;;;;;;5095768;28;20028;-81
2021/06/08 00:05:29;;;;;;;7.25;5.50;;;16.20;93.40;;;;;;5095965;28;20016;-82
2021/06/08 00:07:56;;;;;;;7.75;5.47;;;16.20;93.40;;;;;;5095588;28;20369;-82
2021/06/08 00:10:22;;;;;;;7.30;5.95;;;16.20;93.40;;;;;;5095908;28;20020;-81
2021/06/08 00:12:48;;;;;;;9.10;6.75;;;16.20;93.50;;;;;;5095610;28;20024;-82
2021/06/08 00:15:14;;;;;;;8.18;6.35;;;16.20;93.60;;;;;;5095665;28;20027;-80
2021/06/08 00:17:40;;;;;;;9.95;7.13;;;16.20;93.70;;;;;;5095481;28;20028;-81
2021/06/08 00:20:07;;;;;;;8.93;7.35;;;16.20;93.70;;;;;;5095632;28;20032;-80
2021/06/08 00:22:33;;;;;;;8.85;6.10;;;16.10;93.70;;;;;;5095637;28;20073;-80
2021/06/08 00:24:59;;;;;;;6.03;4.80;;;16.20;93.60;;;;;;5095451;28;20081;-80
2021/06/08 00:27:25;;;;;;;5.53;4.32;;;16.10;93.20;;;;;;5095387;28;20036;-81
2021/06/08 00:29:50;;;;;;;4.65;4.13;;;16.20;93.10;;;;;;5095611;28;20377;-80
2021/06/08 00:32:16;;;;;;;5.70;4.20;;;16.10;92.90;;;;;;5094905;28;20028;-80
2021/06/08 00:34:41;;;;;;;6.32;3.90;;;16.10;92.80;;;;;;5095640;28;20020;-80
2021/06/08 00:37:07;;;;;;;6.22;3.78;;;16.10;92.80;;;;;;5095672;28;20043;-81
2021/06/08 00:39:33;;;;;;;3.97;3.10;;;16.10;92.80;;;;;;5094361;28;20023;-80
2021/06/08 00:41:58;;;;;;;2.78;2.50;;;16.10;92.70;;;;;;5095522;28;20020;-81
2021/06/08 00:44:24;;;;;;;2.80;2.53;;;16.00;92.40;;;;;;5095448;28;20476;-82
2021/06/08 00:46:49;;;;;;;2.63;2.42;;;16.00;92.10;;;;;;5095236;28;20123;-82
2021/06/08 00:49:16;;;;;;;2.33;2.13;;;16.00;92.10;;;;;;5097243;28;20092;-79
2021/06/08 00:51:42;;;;;;;2.95;2.53;;;16.00;92.20;;;;;;5099036;28;20020;-79
2021/06/08 00:54:11;;;;;;;2.45;2.25;;;16.00;92.40;;;;;;5099006;28;20102;-79
2021/06/08 00:56:39;;;;;;;2.55;1.92;;;15.90;92.40;;;;;;5096398;28;20031;-79
2021/06/08 00:59:05;;;;;;;4.57;2.10;;;15.90;92.40;;;;;;5094990;28;20035;-79
2021/06/08 01:01:32;;;;;;;2.75;1.90;;;15.90;93.00;;;;;;5094907;28;20028;-79
2021/06/08 01:03:58;;;;;;;3.33;2.17;;;15.90;92.10;;;;;;5094897;28;20033;-80
2021/06/08 01:06:23;;;;;;;3.67;2.55;;;15.80;92.00;;;;;;5094837;28;20100;-79
2021/06/08 01:08:49;;;;;;;2.67;1.98;;;15.80;92.10;;;;;;5095163;28;20099;-79
2021/06/08 01:11:15;;;;;;;2.40;2.20;;;15.80;92.10;;;;;;5095027;28;20032;-79
2021/06/08 01:13:42;;;;;;;4.57;2.55;;;15.80;92.00;;;;;;5094947;28;20024;-80
2021/06/08 01:16:08;;;;;;;3.00;2.10;;;15.80;92.40;;;;;;5093718;28;20107;-78
2021/06/08 01:18:34;;;;;;;3.15;2.15;;;15.70;92.20;;;;;;5093488;28;20481;-78
2021/06/08 01:21:07;;;;;;;3.75;2.10;;;15.60;92.00;;;;;;5094566;28;20020;-78
2021/06/08 01:23:34;;;;;;;4.93;2.30;;;15.60;92.20;;;;;;5094524;28;20034;-77
2021/06/08 01:26:00;;;;;;;4.38;2.33;;;15.70;92.40;;;;;;5094997;28;20107;-77
2021/06/08 01:28:26;;;;;;;3.53;2.10;;;15.60;92.20;;;;;;5100873;28;20121;-79
2021/06/08 01:30:54;;;;;;;2.50;2.20;;;15.50;92.40;;;;;;5094963;28;20093;-78
2021/06/08 01:33:22;;;;;;;3.88;2.38;;;15.50;92.60;;;;;;5094504;28;20081;-80
2021/06/08 01:35:50;;;;;;;2.70;2.35;;;15.50;93.70;;;;;;5094358;28;20035;-80
2021/06/08 01:38:16;;;;;;;5.75;2.40;;;15.50;93.00;;;;;;5094239;28;20052;-80
2021/06/08 01:40:44;;;;;;;5.18;2.67;;;15.50;93.30;;;;;;5093996;28;20115;-80
2021/06/08 01:43:10;;;;;;;3.05;2.50;;;15.50;93.40;;;;;;5094046;28;20055;-80
2021/06/08 01:45:36;;;;;;;3.58;2.55;;;15.50;93.50;;;;;;5093792;28;20484;-80
2021/06/08 01:48:03;;;;;;;3.38;2.35;;;15.60;93.50;;;;;;5094018;28;20135;-80
2021/06/08 01:50:29;;;;;;;2.30;2.10;;;15.50;93.50;;;;;;5093914;28;20035;-79
2021/06/08 01:53:08;;;;;;;3.75;2.67;;;15.50;93.50;;;;;;5093931;28;20020;-79
2021/06/08 01:55:39;;;;;;;2.80;1.90;;;15.50;93.30;;;;;;5093884;28;20023;-79
2021/06/08 01:58:11;;;;;;;4.35;2.22;;;15.50;93.40;;;;;;5093893;28;20024;-79
2021/06/08 02:00:41;;;;;;;2.70;2.40;;;15.40;93.30;;;;;;5093780;28;20510;-79
2021/06/08 02:03:41;;;;;;;2.67;1.92;;;15.50;93.50;;;;;;5093779;28;20028;-79
2021/06/08 02:06:17;;;;;;;2.03;1.80;;;15.50;93.40;;;;;;5093783;28;20020;-79
2021/06/08 02:09:06;;;;;;;3.13;2.47;;;15.50;93.40;;;;;;5093932;28;20511;-80
2021/06/08 02:12:07;;;;;;;3.15;2.30;;;15.50;93.50;;;;;;5098185;28;20404;-79
2021/06/08 02:14:49;;;;;;;2.67;2.20;;;15.40;93.30;;;;;;5034174;28;20025;-79
2021/06/08 02:17:23;;;;;;;2.47;2.10;;;15.50;93.60;;;;;;5089177;28;20036;-80
2021/06/08 02:19:52;;;;;;;2.55;2.10;;;15.50;93.60;;;;;;5096601;28;20024;-81
2021/06/08 02:22:24;;;;;;;4.35;2.75;;;15.50;93.60;;;;;;5100277;28;20036;-80
2021/06/08 02:24:51;;;;;;;3.03;2.20;;;15.50;93.40;;;;;;5106535;28;20024;-81
2021/06/08 02:27:23;;;;;;;3.40;2.58;;;15.50;93.30;;;;;;5094210;28;20524;-82
2021/06/08 02:29:53;;;;;;;2.65;2.42;;;15.50;93.30;;;;;;5093403;28;20028;-81
2021/06/08 02:32:20;;;;;;;4.38;2.50;;;15.50;93.20;;;;;;5092006;28;20021;-81
2021/06/08 02:34:46;;;;;;;3.13;2.30;;;15.50;93.10;;;;;;5093238;28;20028;-82
2021/06/08 02:37:14;;;;;;;3.53;2.47;;;15.50;93.20;;;;;;5093436;28;20020;-80
2021/06/08 02:39:41;;;;;;;4.13;2.22;;;15.50;93.30;;;;;;5093216;28;20507;-81
2021/06/08 02:42:09;;;;;;;4.68;2.67;;;15.50;93.20;;;;;;5092990;28;20043;-81
2021/06/08 02:44:35;;;;;;;2.70;2.15;;;15.50;93.00;;;;;;5091737;28;20051;-81
2021/06/08 02:47:02;;;;;;;2.92;2.40;;;15.40;93.20;;;;;;5092761;28;20074;-80
2021/06/08 02:49:29;;;;;;;2.42;2.22;;;15.40;93.20;;;;;;5092978;28;20032;-81
2021/06/08 02:51:56;;;;;;;2.33;2.13;;;15.50;93.30;;;;;;5092730;28;20035;-81
2021/06/08 02:54:22;;;;;;;2.67;2.03;;;15.50;93.20;;;;;;5091027;28;20060;-81
2021/06/08 02:56:49;;;;;;;4.07;3.30;;;15.50;93.10;;;;;;5092795;28;20012;-81
2021/06/08 02:59:16;;;;;;;3.47;3.17;;;15.40;93.10;;;;;;5092913;28;20388;-81
2021/06/08 03:01:49;;;;;;;3.63;2.83;;;15.30;93.80;;;;;;5092829;28;20055;-81
2021/06/08 03:04:18;;;;;;;6.22;2.83;;;15.30;93.50;;;;;;5092851;28;20024;-81
2021/06/08 03:06:56;;;;;;;2.67;2.30;;;15.30;93.40;;;;;;5092750;28;20027;-80
2021/06/08 03:09:45;;;;;;;2.83;2.58;;;15.30;93.30;;;;;;5092796;28;20111;-81
2021/06/08 03:12:14;;;;;;;6.65;2.60;;;15.30;93.40;;;;;;5092946;28;20024;-81
2021/06/08 03:14:45;;;;;;;3.45;2.60;;;15.30;93.50;;;;;;5092720;28;20028;-81
2021/06/08 03:17:13;;;;;;;2.80;2.45;;;15.30;93.50;;;;;;5091505;28;20384;-81
2021/06/08 03:19:43;;;;;;;3.53;2.83;;;15.30;93.50;;;;;;5092664;28;20022;-80
2021/06/08 03:22:13;;;;;;;3.47;3.10;;;15.40;93.70;;;;;;5092657;28;20081;-80
2021/06/08 03:24:41;;;;;;;4.40;3.55;;;15.40;93.50;;;;;;5092529;28;20051;-80
2021/06/08 03:27:07;;;;;;;4.70;4.20;;;15.30;93.40;;;;;;5092612;28;20085;-80
2021/06/08 03:29:35;;;;;;;6.38;3.88;;;15.30;93.40;;;;;;5092300;28;20365;-80
2021/06/08 03:32:01;;;;;;;5.32;4.30;;;15.30;93.60;;;;;;5092357;28;20052;-80
2021/06/08 03:34:29;;;;;;;4.90;4.35;;;15.30;93.90;;;;;;5092467;28;20059;-80
2021/06/08 03:36:56;;;;;;;5.22;4.30;;;15.20;93.90;;;;;;5092161;28;20026;-80
2021/06/08 03:39:24;;;;;;;4.10;3.70;;;15.30;93.80;;;;;;5092471;28;20035;-81
2021/06/08 03:41:52;;;;;;;3.70;3.15;;;15.30;93.70;;;;;;5092389;28;20028;-80
2021/06/08 03:44:19;;;;;;;3.75;3.35;;;15.30;94.70;;;;;;5092322;28;20489;-80
2021/06/08 03:46:49;;;;;;;3.13;2.85;;;15.20;93.80;;;;;;5092073;28;20048;-81
2021/06/08 03:49:17;;;;;;;5.22;3.45;;;15.30;94.00;;;;;;5092185;28;20045;-81
2021/06/08 03:51:43;;;;;;;4.03;2.80;;;15.30;94.10;;;;;;5092091;28;20052;-80
2021/06/08 03:54:12;;;;;;;2.50;2.22;;;15.30;94.30;;;;;;5092208;28;20116;-80
2021/06/08 03:56:41;;;;;;;3.20;2.90;;;15.40;94.30;;;;;;5091996;28;20016;-80
2021/06/08 03:59:10;;;;;;;5.05;3.17;;;15.40;94.10;;;;;;5092145;28;20379;-80
2021/06/08 04:01:37;;;;;;;2.97;2.55;;;15.40;93.80;;;;;;5093134;28;20035;-79
2021/06/08 04:04:05;;;;;;;3.72;3.08;;;15.40;94.50;;;;;;5102557;28;20016;-79
2021/06/08 04:06:32;;;;;;;3.72;2.90;;;15.30;93.80;;;;;;5105717;28;20028;-81
2021/06/08 04:09:05;;;;;;;3.03;2.70;;;15.40;93.90;;;;;;5096338;28;20036;-81
2021/06/08 04:11:31;;;;;;;2.97;2.67;;;15.30;93.90;;;;;;5096012;28;20027;-80
2021/06/08 04:13:57;;;;;;;3.70;2.80;;;15.30;94.00;;;;;;5096043;28;20068;-80
2021/06/08 04:16:23;;;;;;;4.68;2.90;;;15.40;94.00;;;;;;5095945;28;20036;-80
2021/06/08 04:18:50;;;;;;;3.83;3.22;;;15.30;94.00;;;;;;5095811;28;20464;-80
2021/06/08 04:21:15;;;;;;;5.18;3.65;;;15.40;94.10;;;;;;5095684;28;20093;-80
2021/06/08 04:23:42;;;;;;;5.07;3.50;;;15.40;93.80;;;;;;5095518;28;20476;-79
2021/06/08 04:26:08;;;;;;;4.07;3.15;;;15.40;93.60;;;;;;5095480;28;20099;-81
2021/06/08 04:28:33;;;;;;;3.95;3.50;;;15.40;93.60;;;;;;5095499;28;20135;-80
2021/06/08 04:30:59;;;;;;;6.95;3.35;;;15.40;93.60;;;;;;5095747;28;20128;-81
2021/06/08 04:33:28;;;;;;;3.50;2.75;;;15.40;93.50;;;;;;5095648;28;20423;-80
2021/06/08 04:35:53;;;;;;;4.07;2.75;;;15.40;93.50;;;;;;5095453;28;20024;-80
2021/06/08 04:38:21;;;;;;;3.00;2.72;;;15.40;93.50;;;;;;5095714;28;20030;-80
2021/06/08 04:40:50;;;;;;;4.18;2.75;;;15.40;93.40;;;;;;5094112;28;20510;-80
2021/06/08 04:43:21;;;;;;;4.63;3.80;;;15.40;93.20;;;;;;5094166;28;20023;-80
2021/06/08 04:45:47;;;;;;;4.55;3.60;;;15.40;93.00;;;;;;5095375;28;20046;-79
2021/06/08 04:48:13;;;;;;;4.05;3.28;;;15.30;93.40;;;;;;5095588;28;20119;-80
2021/06/08 04:50:38;;;;;;;3.90;3.15;;;15.30;93.10;;;;;;5095409;28;20032;-79
2021/06/08 04:53:04;;;;;;;4.68;2.83;;;15.30;93.20;;;;;;5095561;28;20532;-81
2021/06/08 04:55:30;;;;;;;5.15;3.00;;;15.40;93.40;;;;;;5099712;28;20086;-79
2021/06/08 04:57:56;;;;;;;3.63;3.10;;;15.40;93.70;;;;;;5104790;28;20024;-81
2021/06/08 05:00:44;;;;;;;3.50;3.17;;;15.40;93.70;;;;;;5105550;28;20569;-79
2021/06/08 05:03:19;;;;;;;3.35;2.58;;;15.40;93.50;;;;;;5105110;28;20031;-83
2021/06/08 05:05:49;;;;;;;2.90;2.60;;;15.40;93.00;;;;;;5104290;28;20024;-81
2021/06/08 05:08:35;;;;;;;6.97;2.67;;;15.40;92.80;;;;;;5097614;28;20043;-81
2021/06/08 05:11:21;;;;;;;3.58;2.92;;;15.40;92.90;;;;;;5095045;28;20048;-81
2021/06/08 05:13:48;;;;;;;;;;;15.50;93.10;;;;;;5095508;28;20020;-81
2021/06/08 05:16:15;;;;;;;3.10;2.80;;;15.50;93.10;;;;;;5095039;28;19904;-80
2021/06/08 05:18:48;;;;;;;4.22;3.22;;;15.50;93.00;;;;;;5094554;28;20048;-81
2021/06/08 05:21:17;;;;;;;5.53;2.78;;;15.50;93.10;;;;;;5094732;28;20051;-81
2021/06/08 05:23:43;;;;;;;2.50;2.30;;;15.50;93.10;;;;;;5094628;28;20028;-80
2021/06/08 05:26:11;;;;;;;4.53;2.83;;;15.50;93.00;;;;;;5094619;28;20028;-79
2021/06/08 05:28:40;;;;;;;6.30;3.10;;;15.50;93.10;;;;;;5093953;28;20071;-80
2021/06/08 05:31:06;;;;;;;3.47;3.03;;;15.60;93.10;;;;;;5094463;28;20024;-80
2021/06/08 05:33:34;;;;;;;3.85;3.17;;;15.60;93.20;;;;;;5094308;28;20377;-80
2021/06/08 05:36:00;;;;;;;4.93;3.25;;;15.70;93.30;;;;;;5095610;28;20030;-83
2021/06/08 05:38:32;;;;;;;3.58;3.13;;;15.70;93.30;;;;;;5096793;28;20474;-79
2021/06/08 05:41:09;;;;;;;3.42;3.03;;;15.70;93.40;;;;;;5112766;28;20023;-83
2021/06/08 05:43:35;;;;;;;4.65;3.42;;;15.80;93.40;;;;;;5118668;28;20023;-82
2021/06/08 05:46:05;;;;;;;4.63;3.47;;;15.80;93.30;;;;;;5096558;28;20052;-80
2021/06/08 05:48:32;;;;;;;5.45;3.40;;;15.90;93.20;;;;;;5095436;28;20071;-80
2021/06/08 05:50:59;;;;;;;8.07;4.22;;;16.00;93.10;;;;;;5094717;28;20020;-76
2021/06/08 05:53:26;;;;;;;9.35;4.20;;;16.00;92.90;;;;;;5094987;28;20099;-87
2021/06/08 05:55:54;;;;;;;17.35;5.97;;;16.10;93.00;;;;;;5094443;28;20476;-87
2021/06/08 05:58:29;;;;;;;13.88;5.13;;;16.30;94.00;;;;;;5094533;28;20055;-83
2021/06/08 06:00:57;;;;;;;;;;;16.60;92.20;;;;;;5093750;28;20511;-82
2021/06/08 06:03:24;;;;;;;6.97;3.63;;;16.90;90.40;;;;;;5095048;28;19908;-77
2021/06/08 06:05:51;;;;;;;3.95;3.20;;;17.10;88.40;;;;;;5094376;28;20027;-78
2021/06/08 06:08:17;;;;;;;8.27;2.95;;;17.30;87.10;;;;;;5093843;28;20131;-79
2021/06/08 06:10:43;;;;;;;4.90;3.10;;;17.40;86.50;;;;;;5093946;28;20055;-79
2021/06/08 06:13:18;;;;;;;4.93;2.67;;;17.40;86.10;;;;;;5094032;28;20357;-83
2021/06/08 06:15:48;;;;;;;4.40;3.13;;;17.50;85.00;;;;;;5076703;28;20024;-82
2021/06/08 06:18:16;;;;;;;4.38;3.20;;;17.40;85.30;;;;;;5094772;28;20020;-82
2021/06/08 06:20:42;;;;;;;2.97;2.47;;;17.40;85.80;;;;;;5094671;28;20476;-84
2021/06/08 06:23:09;;;;;;;5.78;2.70;;;17.40;86.00;;;;;;5095305;28;20024;-81
2021/06/08 06:25:35;;;;;;;3.60;3.28;;;17.30;85.60;;;;;;5094557;28;20017;-85
2021/06/08 06:28:00;;;;;;;4.35;3.67;;;17.30;85.50;;;;;;5094080;28;20487;-84
2021/06/08 06:30:26;;;;;;;3.28;2.63;;;17.30;85.30;;;;;;5092188;28;20069;-85
2021/06/08 06:32:52;;;;;;;5.45;3.40;;;17.30;85.40;;;;;;5093759;28;20028;-79
2021/06/08 06:35:18;;;;;;;5.93;3.60;;;17.30;85.60;;;;;;5093422;28;20023;-83
2021/06/08 06:37:46;;;;;;;4.78;3.47;;;17.20;85.60;;;;;;5093321;28;20099;-84
2021/06/08 06:40:23;;;;;;;4.55;3.83;;;17.30;85.70;;;;;;5093306;28;20423;-80
2021/06/08 06:42:52;;;;;;;4.07;3.60;;;17.20;85.40;;;;;;5093522;28;20078;-79
2021/06/08 06:45:22;;;;;;;5.13;4.53;;;17.20;85.60;;;;;;5094616;28;20024;-77
2021/06/08 06:47:48;;;;;;;4.10;3.70;;;17.20;86.10;;;;;;5097122;28;20031;-81
2021/06/08 06:50:37;;;;;;;5.68;3.70;;;17.10;85.60;;;;;;5072936;28;20452;-77
2021/06/08 06:53:04;;;;;;;3.88;3.50;;;17.20;86.40;;;;;;5095439;28;20078;-80
2021/06/08 06:55:31;;;;;;;4.25;3.58;;;17.20;86.10;;;;;;5095992;28;20372;-85
2021/06/08 06:57:57;;;;;;;4.57;3.45;;;17.30;86.00;;;;;;5092817;28;20473;-83
2021/06/08 07:00:25;;;;;;;5.75;3.85;;;17.20;86.20;;;;;;5093910;28;20032;-85
2021/06/08 07:02:54;;;;;;;5.95;4.38;;;17.30;86.40;;;;;;5093318;28;20028;-85
2021/06/08 07:05:29;;;;;;;4.22;3.60;;;17.30;86.70;;;;;;5093564;28;20022;-84
2021/06/08 07:07:55;;;;;;;4.50;4.07;;;17.30;86.80;;;;;;5094435;28;20038;-85
2021/06/08 07:10:25;;;;;;;3.78;3.40;;;17.30;86.60;;;;;;5095537;28;20036;-80
2021/06/08 07:12:52;;;;;;;6.90;4.55;;;17.30;86.40;;;;;;5097657;28;20145;-80
2021/06/08 07:15:26;;;;;;;5.18;4.68;;;17.30;86.20;;;;;;5097473;28;20051;-83
2021/06/08 07:17:52;;;;;;;5.22;4.60;;;17.30;86.90;;;;;;5096676;28;20050;-84
2021/06/08 07:20:19;;;;;;;7.32;4.70;;;17.20;87.00;;;;;;5098540;28;20024;-84
2021/06/08 07:22:46;;;;;;;5.75;3.95;;;17.10;86.60;;;;;;5114556;28;20008;-85
2021/06/08 07:25:14;;;;;;;4.28;3.80;;;17.10;86.80;;;;;;5112581;28;20016;-85
2021/06/08 07:27:40;;;;;;;5.28;4.75;;;17.10;87.00;;;;;;5098681;28;20365;-80
2021/06/08 07:30:07;;;;;;;6.97;5.10;;;17.10;87.10;;;;;;5096508;28;20032;-81
2021/06/08 07:32:55;;;;;;;6.82;6.13;;;17.20;87.20;;;;;;5093784;28;20388;-81
2021/06/08 07:35:34;;;;;;;6.97;6.20;;;17.20;87.00;;;;;;5093898;28;20104;-81
2021/06/08 07:38:07;;;;;;;5.95;5.25;;;17.10;86.60;;;;;;5093709;28;20020;-81
2021/06/08 07:40:49;;;;;;;6.38;5.32;;;17.20;86.30;;;;;;5094180;28;20082;-83
2021/06/08 07:43:22;;;;;;;6.63;5.43;;;17.30;86.30;;;;;;5097754;28;20477;-81
2021/06/08 07:45:50;;;;;;;7.68;5.90;;;17.30;86.10;;;;;;5097058;28;20481;-84
2021/06/08 07:48:24;;;;;;;5.95;5.10;;;17.40;85.90;;;;;;5097382;28;20028;-84
2021/06/08 07:50:52;;;;;;;11.60;6.15;;;17.40;85.50;;;;;;5098205;28;20046;-86
2021/06/08 07:53:25;;;;;;;7.78;6.60;;;17.40;85.70;;;;;;5096991;28;20030;-81
2021/06/08 07:55:51;;;;;;;7.93;6.68;;;17.40;85.70;;;;;;5096613;28;20408;-86
2021/06/08 07:58:23;;;;;;;9.15;6.53;;;17.50;85.80;;;;;;5096857;28;20035;-85
2021/06/08 08:00:54;;;;;;;7.32;6.45;;;17.50;85.90;;;;;;5096757;28;20027;-84
2021/06/08 08:03:26;;;;;;;7.60;6.72;;;17.50;86.30;;;;;;5096551;28;20472;-82
2021/06/08 08:06:01;;;;;;;8.77;6.60;;;17.60;86.10;;;;;;5095742;28;20024;-84
2021/06/08 08:08:28;;;;;;;6.68;5.85;;;17.60;85.90;;;;;;5094522;28;20089;-84
2021/06/08 08:10:54;;;;;;;10.55;8.02;;;17.70;86.20;;;;;;5097032;28;20020;-84
2021/06/08 08:13:22;;;;;;;12.75;9.77;;;17.70;85.80;;;;;;5097649;28;20028;-85
2021/06/08 08:15:52;;;;;;;12.18;9.48;;;17.60;85.70;;;;;;5103538;28;20020;-83
2021/06/08 08:18:20;;;;;;;14.13;10.48;;;17.60;86.20;;;;;;5096428;28;20034;-84
2021/06/08 08:20:51;;;;;;;12.60;9.02;;;17.50;86.20;;;;;;5096203;28;20017;-80
2021/06/08 08:23:17;;;;;;;13.77;10.43;;;17.50;86.30;;;;;;5096115;28;20110;-79
2021/06/08 08:25:44;;;;;;;11.27;8.70;;;17.50;86.20;;;;;;5096062;28;20361;-82
2021/06/08 08:28:12;;;;;;;16.38;11.05;;;17.50;86.30;;;;;;5095811;28;20028;-82
2021/06/08 08:30:38;;;;;;;13.63;11.02;;;17.50;86.70;;;;;;5095728;28;20016;-83
2021/06/08 08:33:05;;;;;;;18.60;13.27;;;17.40;86.90;;;;;;5095934;28;20089;-84
2021/06/08 08:35:32;;;;;;;19.92;13.50;;;17.30;87.50;;;;;;5095830;28;20016;-82
2021/06/08 08:37:58;;;;;;;14.45;10.88;;;17.10;88.00;;;;;;5097434;28;20024;-81
2021/06/08 08:40:24;;;;;;;14.93;10.25;;;17.10;88.20;;;;;;5096439;28;20035;-84
2021/06/08 08:42:50;;;;;;;24.00;15.95;;;17.20;88.50;;;;;;5096178;28;20028;-84
2021/06/08 08:45:16;;;;;;;19.60;14.68;;;17.30;89.00;;;;;;5095804;28;20031;-82
2021/06/08 08:47:44;;;;;;;26.10;17.70;;;17.20;88.80;;;;;;5095426;28;20105;-82
2021/06/08 08:50:19;;;;;;;26.73;17.48;;;17.20;89.00;;;;;;5095716;28;20028;-83
2021/06/08 08:52:46;;;;;;;27.42;18.25;;;17.00;90.30;;;;;;5094995;28;20020;-83
2021/06/08 08:55:13;;;;;;;27.08;18.30;;;17.00;90.20;;;;;;5095409;28;20105;-85
2021/06/08 08:57:47;;;;;;;25.00;17.23;;;17.00;91.00;;;;;;5095397;28;20357;-84
2021/06/08 09:00:13;;;;;;;22.53;15.03;;;17.10;91.20;;;;;;5095322;28;20376;-83
2021/06/08 09:02:39;;;;;;;27.40;16.92;;;17.20;90.70;;;;;;5095040;28;20028;-83
2021/06/08 09:05:06;;;;;;;26.50;17.25;;;17.30;90.50;;;;;;5095221;28;20028;-82
2021/06/08 09:07:32;;;;;;;32.47;17.80;;;17.30;90.20;;;;;;5095169;28;20079;-84
2021/06/08 09:09:57;;;;;;;36.08;20.63;;;17.50;90.00;;;;;;5095528;28;20020;-83
2021/06/08 09:12:23;;;;;;;33.38;20.75;;;17.50;90.20;;;;;;5114779;28;20099;-79
2021/06/08 09:14:49;;;;;;;33.38;20.88;;;17.50;89.90;;;;;;5103058;28;20031;-83
2021/06/08 09:17:18;;;;;;;33.28;19.95;;;17.60;89.60;;;;;;5095199;28;20031;-81
2021/06/08 09:19:44;;;;;;;32.50;18.80;;;17.70;89.50;;;;;;5093391;28;20016;-85
2021/06/08 09:22:11;;;;;;;29.75;18.05;;;17.80;89.20;;;;;;5093785;28;20024;-86
2021/06/08 09:24:40;;;;;;;41.72;22.92;;;17.90;88.90;;;;;;5093252;28;20035;-82
2021/06/08 09:27:07;;;;;;;31.20;20.00;;;18.10;88.10;;;;;;5094409;28;20019;-83
2021/06/08 09:29:42;;;;;;;36.42;22.80;;;18.20;87.70;;;;;;5094091;28;20034;-83
2021/06/08 09:32:39;;;;;;;38.13;23.70;;;18.30;87.40;;;;;;5094418;28;20099;-84
2021/06/08 09:35:06;;;;;;;29.35;18.42;;;18.60;86.30;;;;;;5081994;28;20032;-84
2021/06/08 09:37:45;;;;;;;27.02;19.00;;;18.80;85.90;;;;;;5094329;28;20373;-84
2021/06/08 09:40:22;;;;;;;36.60;22.50;;;19.00;85.00;;;;;;5093219;28;20042;-83
2021/06/08 09:42:50;;;;;;;34.80;22.85;;;18.80;84.40;;;;;;5094296;28;20036;-83
2021/06/08 09:45:20;;;;;;;33.85;22.63;;;18.70;84.80;;;;;;5094053;28;20020;-79
2021/06/08 09:47:58;;;;;;;32.53;23.13;;;18.60;84.90;;;;;;5094027;28;20067;-79
2021/06/08 09:50:27;;;;;;;32.30;22.55;;;18.90;84.20;;;;;;5093855;28;20052;-78
2021/06/08 09:53:24;;;;;;;32.17;21.45;;;18.90;83.90;;;;;;5093781;28;20046;-79
2021/06/08 09:55:51;;;;;;;35.72;22.65;;;19.10;83.70;;;;;;5092629;28;20026;-79
2021/06/08 09:58:16;;;;;;;31.52;21.42;;;19.10;82.30;;;;;;5092547;28;20020;-78
2021/06/08 10:00:42;;;;;;;31.60;22.80;;;19.00;82.60;;;;;;5092200;28;20537;-78
2021/06/08 10:03:08;;;;;;;32.15;21.80;;;18.80;83.30;;;;;;5093458;28;20379;-79
2021/06/08 10:05:34;;;;;;;32.78;22.90;;;18.90;83.90;;;;;;5092316;28;20067;-79
2021/06/08 10:08:00;;;;;;;29.08;20.58;;;18.90;83.10;;;;;;5093342;28;20421;-79
2021/06/08 10:10:39;;;;;;;25.52;18.83;;;18.70;84.50;;;;;;5093290;28;20047;-79
2021/06/08 10:13:12;;;;;;;29.20;20.90;;;18.80;84.60;;;;;;5093517;28;20461;-79
2021/06/08 10:15:58;;;;;;;31.55;24.27;;;19.00;84.60;;;;;;5093274;28;20103;-79
2021/06/08 10:18:39;;;;;;;35.80;25.42;;;18.80;82.80;;;;;;5093245;28;20421;-79
2021/06/08 10:21:05;;;;;;;33.05;26.52;;;18.80;83.10;;;;;;5093322;28;20024;-79
2021/06/08 10:23:33;;;;;;;34.97;26.60;;;18.70;82.80;;;;;;5093390;28;20030;-80
2021/06/08 10:26:12;;;;;;;33.53;25.50;;;18.80;82.50;;;;;;5093065;28;20020;-79
2021/06/08 10:28:39;;;;;;;41.38;28.65;;;18.80;82.40;;;;;;5101273;28;20405;-80
2021/06/08 10:31:05;;;;;;;35.17;25.23;;;18.80;82.20;;;;;;5096632;28;20044;-79
2021/06/08 10:33:32;;;;;;;29.60;22.23;;;18.90;82.40;;;;;;5092828;28;20051;-80
2021/06/08 10:35:58;;;;;;;34.95;27.65;;;19.00;82.30;;;;;;5092867;28;20019;-79
2021/06/08 10:38:25;;;;;;;30.55;21.13;;;19.20;82.40;;;;;;5093267;28;20063;-79
2021/06/08 10:40:54;;;;;;;39.83;28.98;;;19.40;82.00;;;;;;5092963;28;20179;-79
2021/06/08 10:43:26;;;;;;;48.50;29.73;;;19.50;80.00;;;;;;5091584;28;20024;-79
2021/06/08 10:45:55;;;;;;;42.00;28.80;;;19.50;78.90;;;;;;5091449;28;20113;-79
2021/06/08 10:48:26;;;;;;;39.30;27.00;;;19.50;79.60;;;;;;5092711;28;20051;-80
2021/06/08 10:51:12;;;;;;;39.63;28.15;;;19.60;79.60;;;;;;5091271;28;20491;-79
2021/06/08 10:53:41;;;;;;;42.72;29.63;;;19.80;79.20;;;;;;5092719;28;20521;-79
2021/06/08 10:56:30;;;;;;;38.40;28.40;;;19.70;80.20;;;;;;5092676;28;20029;-79
2021/06/08 10:59:06;;;;;;;32.75;25.40;;;19.70;80.70;;;;;;5092988;28;20495;-79
2021/06/08 11:01:41;;;;;;;;;;;19.90;80.50;;;;;;5093308;28;20062;-79
2021/06/08 11:04:09;;;;;;;26.87;21.23;;;20.20;79.00;;;;;;5092967;28;19938;-79
2021/06/08 11:06:44;;;;;;;33.15;24.08;;;20.50;78.00;;;;;;5092938;28;20070;-81
2021/06/08 11:09:15;;;;;;;34.15;25.80;;;20.70;77.00;;;;;;5092611;28;20043;-79
2021/06/08 11:11:46;;;;;;;37.55;26.95;;;20.70;75.90;;;;;;5092489;28;20496;-79
2021/06/08 11:14:35;;;;;;;36.00;26.95;;;20.50;76.50;;;;;;5091922;28;20520;-79
2021/06/08 11:17:06;;;;;;;38.72;27.70;;;20.30;77.00;;;;;;5096124;28;20477;-79
2021/06/08 11:19:41;;;;;;;34.40;26.75;;;20.40;76.70;;;;;;5095699;28;20020;-79
2021/06/08 11:22:07;;;;;;;30.67;24.00;;;20.50;76.60;;;;;;5097062;28;20396;-79
2021/06/08 11:24:40;;;;;;;36.20;26.83;;;20.50;75.10;;;;;;5096879;28;20097;-79
2021/06/08 11:27:07;;;;;;;30.52;24.33;;;20.50;74.90;;;;;;5096619;28;20481;-79
2021/06/08 11:29:48;;;;;;;34.58;27.30;;;20.50;75.40;;;;;;5096425;28;20103;-79
2021/06/08 11:32:29;;;;;;;30.85;24.73;;;20.60;75.80;;;;;;5096816;28;20023;-78
2021/06/08 11:35:05;;;;;;;32.13;25.63;;;20.70;76.10;;;;;;5096709;28;20434;-78
2021/06/08 11:38:13;;;;;;;28.48;22.38;;;20.70;75.20;;;;;;5096167;28;20035;-79
2021/06/08 11:40:39;;;;;;;31.63;26.10;;;20.80;75.10;;;;;;5088066;28;20333;-79
2021/06/08 11:43:10;;;;;;;31.83;22.98;;;20.90;75.00;;;;;;5096768;28;20039;-79
2021/06/08 11:45:42;;;;;;;32.47;23.38;;;21.00;74.50;;;;;;5095056;28;20044;-79
2021/06/08 11:48:30;;;;;;;27.85;22.15;;;21.10;73.90;;;;;;5096218;28;20476;-79
2021/06/08 11:50:55;;;;;;;37.08;26.55;;;21.20;73.70;;;;;;5096417;28;20130;-79
2021/06/08 11:53:21;;;;;;;22.35;19.45;;;21.20;73.10;;;;;;5096682;28;20090;-79
2021/06/08 11:56:07;;;;;;;32.88;25.08;;;21.30;72.40;;;;;;5096196;28;20020;-79
2021/06/08 11:58:36;;;;;;;24.20;20.63;;;21.50;72.50;;;;;;5096132;28;20031;-79
2021/06/08 12:01:03;;;;;;;25.73;20.73;;;21.60;72.00;;;;;;5096103;28;20112;-79
2021/06/08 12:03:37;;;;;;;25.75;20.08;;;21.80;71.90;;;;;;5095950;28;20024;-79
2021/06/08 12:06:05;;;;;;;26.27;20.95;;;21.90;71.70;;;;;;5096068;28;20027;-78
2021/06/08 12:08:33;;;;;;;24.13;18.92;;;22.00;71.40;;;;;;5095905;28;20032;-78
2021/06/08 12:11:15;;;;;;;23.38;19.88;;;22.00;70.20;;;;;;5096109;28;20107;-77
2021/06/08 12:13:43;;;;;;;24.15;19.92;;;22.10;69.60;;;;;;5095781;28;20036;-78
2021/06/08 12:16:15;;;;;;;21.98;19.00;;;22.20;68.30;;;;;;5095872;28;20042;-78
2021/06/08 12:18:40;;;;;;;26.27;20.83;;;22.30;68.50;;;;;;5095802;28;20031;-78
2021/06/08 12:21:13;;;;;;;30.83;23.42;;;22.30;68.40;;;;;;5097114;28;20020;-76
2021/06/08 12:23:40;;;;;;;22.67;18.33;;;22.20;68.20;;;;;;5098736;28;20074;-77
2021/06/08 12:26:12;;;;;;;30.40;22.20;;;22.40;68.90;;;;;;5099618;28;20016;-78
2021/06/08 12:28:39;;;;;;;30.45;22.15;;;22.40;67.70;;;;;;5094687;28;20036;-78
2021/06/08 12:31:20;;;;;;;22.80;18.25;;;22.60;67.30;;;;;;5095610;28;20016;-77
2021/06/08 12:33:46;;;;;;;27.38;20.95;;;23.00;66.30;;;;;;5095396;28;20146;-77
2021/06/08 12:36:12;;;;;;;29.00;22.17;;;23.30;65.20;;;;;;5095328;28;20460;-77
2021/06/08 12:38:46;;;;;;;25.42;20.50;;;23.40;65.10;;;;;;5096197;28;20039;-78
2021/06/08 12:41:12;;;;;;;22.10;19.23;;;23.60;64.10;;;;;;5095607;28;20031;-77
2021/06/08 12:43:54;;;;;;;24.38;19.98;;;24.00;63.80;;;;;;5095475;28;20026;-82
2021/06/08 12:46:40;;;;;;;19.92;17.70;;;24.30;61.70;;;;;;5095408;28;20044;-79
2021/06/08 12:49:11;;;;;;;21.75;18.33;;;24.80;60.30;;;;;;5095026;28;20028;-81
2021/06/08 12:51:40;;;;;;;24.98;19.13;;;25.00;58.70;;;;;;5095250;28;20026;-77
2021/06/08 12:54:09;;;;;;;22.95;18.83;;;25.40;58.10;;;;;;5095182;28;20038;-78